createdAt,value
2019-01-15T00:00:00.237Z,0.00
2019-01-15T00:01:00.090Z,0.00
2019-01-15T00:02:00.073Z,0.00
2019-01-15T00:03:00.062Z,0.00
2019-01-15T00:04:00.043Z,0.00
2019-01-15T00:05:00.036Z,0.00
2019-01-15T00:06:00.029Z,0.00
2019-01-15T00:07:00.014Z,0.00
2019-01-15T00:08:00.000Z,0.00
2019-01-15T00:09:00.001Z,0.00
2019-01-15T00:09:59.977Z,0.00
2019-01-15T00:10:59.965Z,0.00
2019-01-15T00:11:59.956Z,0.00
2019-01-15T00:12:59.941Z,0.00
2019-01-15T00:13:59.929Z,0.00
2019-01-15T00:14:59.918Z,0.00
2019-01-15T00:15:59.904Z,0.00
2019-01-15T00:16:59.897Z,0.00
2019-01-15T00:17:59.884Z,0.00
2019-01-15T00:18:59.867Z,0.00
2019-01-15T00:19:59.860Z,0.00
2019-01-15T00:20:59.855Z,0.00
2019-01-15T00:21:59.834Z,0.00
2019-01-15T00:22:59.822Z,0.00
2019-01-15T00:23:59.808Z,0.00
2019-01-15T00:24:59.807Z,0.00
2019-01-15T00:25:59.787Z,0.00
2019-01-15T00:26:59.774Z,0.00
2019-01-15T00:27:59.765Z,0.00
2019-01-15T00:28:59.743Z,0.00
2019-01-15T00:29:59.738Z,0.00
2019-01-15T00:30:59.725Z,0.00
2019-01-15T00:31:59.713Z,0.00
2019-01-15T00:32:59.705Z,0.00
2019-01-15T00:33:59.690Z,0.00
2019-01-15T00:34:59.699Z,0.00
2019-01-15T00:35:59.664Z,0.00
2019-01-15T00:36:59.661Z,0.00
2019-01-15T00:37:59.639Z,0.00
2019-01-15T00:38:59.633Z,0.00
2019-01-15T00:39:59.612Z,0.00
2019-01-15T00:40:59.606Z,0.00
2019-01-15T00:41:59.591Z,0.00
2019-01-15T00:42:59.584Z,0.00
2019-01-15T00:43:59.583Z,0.00
2019-01-15T00:44:59.562Z,0.00
2019-01-15T00:45:59.552Z,0.00
2019-01-15T00:46:59.529Z,0.00
2019-01-15T00:47:59.525Z,0.00
2019-01-15T00:48:59.531Z,0.00
2019-01-15T00:49:59.506Z,0.00
2019-01-15T00:50:59.498Z,0.00
2019-01-15T00:51:59.480Z,0.00
2019-01-15T00:52:59.469Z,0.00
2019-01-15T00:53:59.456Z,0.00
2019-01-15T00:54:59.445Z,0.00
2019-01-15T00:55:59.431Z,0.00
2019-01-15T00:56:59.420Z,0.00
2019-01-15T00:57:59.409Z,0.00
2019-01-15T00:58:59.398Z,0.00
2019-01-15T00:59:59.385Z,0.00
2019-01-15T01:00:59.384Z,0.00
2019-01-15T01:01:59.365Z,0.00
2019-01-15T01:02:59.353Z,0.00
2019-01-15T01:03:59.338Z,0.00
2019-01-15T01:04:59.329Z,0.00
2019-01-15T01:05:59.319Z,0.00
2019-01-15T01:06:59.305Z,0.00
2019-01-15T01:07:59.293Z,0.00
2019-01-15T01:08:59.281Z,0.00
2019-01-15T01:09:59.270Z,0.00
2019-01-15T01:10:59.264Z,0.00
2019-01-15T01:11:59.246Z,0.00
2019-01-15T01:12:59.241Z,0.00
2019-01-15T01:13:59.223Z,0.00
2019-01-15T01:14:59.204Z,0.00
2019-01-15T01:15:59.200Z,0.00
2019-01-15T01:16:59.192Z,0.00
2019-01-15T01:17:59.174Z,0.00
2019-01-15T01:18:59.165Z,0.00
2019-01-15T01:19:59.153Z,0.00
2019-01-15T01:20:59.142Z,0.00
2019-01-15T01:21:59.129Z,0.00
2019-01-15T01:22:59.118Z,0.00
2019-01-15T01:23:59.109Z,0.00
2019-01-15T01:24:59.101Z,0.00
2019-01-15T01:25:59.083Z,0.00
2019-01-15T01:26:59.062Z,0.00
2019-01-15T01:27:59.060Z,0.00
2019-01-15T01:28:59.049Z,0.00
2019-01-15T01:29:59.038Z,0.00
2019-01-15T01:30:59.024Z,0.00
2019-01-15T01:31:59.014Z,0.00
2019-01-15T01:32:59.003Z,0.00
2019-01-15T01:33:58.986Z,0.00
2019-01-15T01:34:58.983Z,0.00
2019-01-15T01:35:58.976Z,0.00
2019-01-15T01:36:58.954Z,0.00
2019-01-15T01:37:58.946Z,0.00
2019-01-15T01:38:58.933Z,0.00
2019-01-15T01:39:58.947Z,0.00
2019-01-15T01:40:58.911Z,0.00
2019-01-15T01:41:58.899Z,0.00
2019-01-15T01:42:58.887Z,0.00
2019-01-15T01:43:58.897Z,0.00
2019-01-15T01:44:58.863Z,0.00
2019-01-15T01:45:58.857Z,0.00
2019-01-15T01:46:58.841Z,0.00
2019-01-15T01:47:58.832Z,0.00
2019-01-15T01:48:58.817Z,0.00
2019-01-15T01:49:58.812Z,0.00
2019-01-15T01:50:58.845Z,0.00
2019-01-15T01:51:58.782Z,0.00
2019-01-15T01:52:58.778Z,0.00
2019-01-15T01:53:58.757Z,0.00
2019-01-15T01:54:58.744Z,0.00
2019-01-15T01:55:58.736Z,0.00
2019-01-15T01:56:58.724Z,0.00
2019-01-15T01:57:58.750Z,0.00
2019-01-15T01:58:58.699Z,0.00
2019-01-15T01:59:58.803Z,0.00
2019-01-15T02:00:58.676Z,0.00
2019-01-15T02:01:58.667Z,0.00
2019-01-15T02:02:58.666Z,0.00
2019-01-15T02:03:58.642Z,0.00
2019-01-15T02:04:58.630Z,0.00
2019-01-15T02:05:58.627Z,0.00
2019-01-15T02:06:58.605Z,0.00
2019-01-15T02:07:58.597Z,0.00
2019-01-15T02:08:58.596Z,0.00
2019-01-15T02:09:58.574Z,0.00
2019-01-15T02:10:58.559Z,0.00
2019-01-15T02:11:58.548Z,0.00
2019-01-15T02:12:58.540Z,0.00
2019-01-15T02:13:58.525Z,0.00
2019-01-15T02:14:58.513Z,0.00
2019-01-15T02:15:58.507Z,0.00
2019-01-15T02:16:58.490Z,0.00
2019-01-15T02:17:58.478Z,0.00
2019-01-15T02:18:58.466Z,0.00
2019-01-15T02:19:58.456Z,0.00
2019-01-15T02:20:58.448Z,0.00
2019-01-15T02:21:58.432Z,0.00
2019-01-15T02:22:58.419Z,0.00
2019-01-15T02:23:58.408Z,0.00
2019-01-15T02:24:58.400Z,0.00
2019-01-15T02:25:58.386Z,0.00
2019-01-15T02:26:58.373Z,0.00
2019-01-15T02:27:58.362Z,0.00
2019-01-15T02:28:58.340Z,0.00
2019-01-15T02:29:58.337Z,0.00
2019-01-15T02:30:58.324Z,0.00
2019-01-15T02:31:58.316Z,0.00
2019-01-15T02:32:58.308Z,0.00
2019-01-15T02:33:58.293Z,0.00
2019-01-15T02:34:58.281Z,0.00
2019-01-15T02:35:58.283Z,0.00
2019-01-15T02:36:58.259Z,0.00
2019-01-15T02:37:58.324Z,0.00
2019-01-15T02:38:58.233Z,0.00
2019-01-15T02:39:58.221Z,0.00
2019-01-15T02:40:58.211Z,0.00
2019-01-15T02:41:58.201Z,0.00
2019-01-15T02:42:58.187Z,0.00
2019-01-15T02:43:58.197Z,0.00
2019-01-15T02:44:58.167Z,0.00
2019-01-15T02:45:58.154Z,0.00
2019-01-15T02:46:58.143Z,0.00
2019-01-15T02:47:58.137Z,0.00
2019-01-15T02:48:58.120Z,0.00
2019-01-15T02:49:58.169Z,0.00
2019-01-15T02:51:00.292Z,0.00
2019-01-15T02:51:58.078Z,0.00
2019-01-15T02:52:58.073Z,0.00
2019-01-15T02:53:58.937Z,0.00
2019-01-15T02:54:58.056Z,0.00
2019-01-15T02:55:58.041Z,0.00
2019-01-15T02:56:58.026Z,0.00
2019-01-15T02:57:58.022Z,0.00
2019-01-15T02:58:58.002Z,0.00
2019-01-15T02:59:57.988Z,0.00
2019-01-15T03:00:57.986Z,0.00
2019-01-15T03:01:57.968Z,0.00
2019-01-15T03:02:57.957Z,0.00
2019-01-15T03:03:57.945Z,0.00
2019-01-15T03:04:57.944Z,0.00
2019-01-15T03:05:57.957Z,0.00
2019-01-15T03:06:57.911Z,0.00
2019-01-15T03:07:57.896Z,0.00
2019-01-15T03:08:57.887Z,0.00
2019-01-15T03:09:57.875Z,0.00
2019-01-15T03:10:57.894Z,0.00
2019-01-15T03:11:57.853Z,0.00
2019-01-15T03:12:57.842Z,0.00
2019-01-15T03:13:57.827Z,0.00
2019-01-15T03:14:57.818Z,0.00
2019-01-15T03:15:57.805Z,0.00
2019-01-15T03:16:57.793Z,0.00
2019-01-15T03:17:57.782Z,0.00
2019-01-15T03:18:57.770Z,0.00
2019-01-15T03:19:57.758Z,0.00
2019-01-15T03:20:57.768Z,0.00
2019-01-15T03:21:57.735Z,0.00
2019-01-15T03:22:57.721Z,0.00
2019-01-15T03:23:57.737Z,0.00
2019-01-15T03:24:57.700Z,0.00
2019-01-15T03:25:57.715Z,0.00
2019-01-15T03:26:57.703Z,0.00
2019-01-15T03:27:57.675Z,0.00
2019-01-15T03:28:57.651Z,0.00
2019-01-15T03:29:57.643Z,0.00
2019-01-15T03:30:57.638Z,0.00
2019-01-15T03:31:57.617Z,0.00
2019-01-15T03:32:57.607Z,0.00
2019-01-15T03:33:57.597Z,0.00
2019-01-15T03:34:57.611Z,0.00
2019-01-15T03:35:57.570Z,0.00
2019-01-15T03:36:57.588Z,0.00
2019-01-15T03:37:57.546Z,0.00
2019-01-15T03:38:57.543Z,0.00
2019-01-15T03:39:57.555Z,0.00
2019-01-15T03:40:59.230Z,0.00
2019-01-15T03:41:57.505Z,0.00
2019-01-15T03:43:03.443Z,0.00
2019-01-15T03:43:57.487Z,0.00
2019-01-15T03:44:57.470Z,0.00
2019-01-15T03:46:04.192Z,0.00
2019-01-15T03:46:57.483Z,0.00
2019-01-15T03:47:57.429Z,0.00
2019-01-15T03:48:57.418Z,0.00
2019-01-15T03:49:57.405Z,0.00
2019-01-15T03:50:57.395Z,0.00
2019-01-15T03:51:57.381Z,0.00
2019-01-15T03:52:57.398Z,0.00
2019-01-15T03:53:57.358Z,0.00
2019-01-15T03:54:57.347Z,0.00
2019-01-15T03:55:57.334Z,0.00
2019-01-15T03:56:57.323Z,0.00
2019-01-15T03:57:57.314Z,0.00
2019-01-15T03:58:57.301Z,0.00
2019-01-15T03:59:57.286Z,0.00
2019-01-15T04:00:57.271Z,0.00
2019-01-15T04:01:57.266Z,0.00
2019-01-15T04:02:57.257Z,0.00
2019-01-15T04:03:57.241Z,0.00
2019-01-15T04:04:57.231Z,0.00
2019-01-15T04:05:57.235Z,0.00
2019-01-15T04:06:57.214Z,0.00
2019-01-15T04:07:57.196Z,0.00
2019-01-15T04:08:57.182Z,0.00
2019-01-15T04:09:57.163Z,0.00
2019-01-15T04:10:57.155Z,0.00
2019-01-15T04:11:57.147Z,0.00
2019-01-15T04:12:57.135Z,0.00
2019-01-15T04:13:57.127Z,0.00
2019-01-15T04:14:57.111Z,0.00
2019-01-15T04:15:57.100Z,0.00
2019-01-15T04:16:57.094Z,0.00
2019-01-15T04:17:57.078Z,0.00
2019-01-15T04:18:57.071Z,0.00
2019-01-15T04:19:57.054Z,0.00
2019-01-15T04:20:57.043Z,0.00
2019-01-15T04:21:57.028Z,0.00
2019-01-15T04:22:57.015Z,0.00
2019-01-15T04:23:57.008Z,0.00
2019-01-15T04:24:57.005Z,0.00
2019-01-15T04:25:56.988Z,0.00
2019-01-15T04:26:56.972Z,0.00
2019-01-15T04:27:56.958Z,0.00
2019-01-15T04:28:56.946Z,0.00
2019-01-15T04:29:56.936Z,0.00
2019-01-15T04:30:59.238Z,0.00
2019-01-15T04:31:56.914Z,0.00
2019-01-15T04:32:56.905Z,0.00
2019-01-15T04:33:56.890Z,0.00
2019-01-15T04:34:56.889Z,0.00
2019-01-15T04:35:56.856Z,0.00
2019-01-15T04:36:56.857Z,0.00
2019-01-15T04:37:56.879Z,0.00
2019-01-15T04:38:56.831Z,0.00
2019-01-15T04:39:56.819Z,0.00
2019-01-15T04:40:56.809Z,0.00
2019-01-15T04:41:56.804Z,0.00
2019-01-15T04:42:56.798Z,0.00
2019-01-15T04:43:56.771Z,0.00
2019-01-15T04:44:56.763Z,0.00
2019-01-15T04:45:56.749Z,0.00
2019-01-15T04:46:56.736Z,0.00
2019-01-15T04:47:56.724Z,0.00
2019-01-15T04:48:56.714Z,0.00
2019-01-15T04:49:56.702Z,0.00
2019-01-15T04:50:56.689Z,0.00
2019-01-15T04:51:56.679Z,0.00
2019-01-15T04:52:56.668Z,0.00
2019-01-15T04:53:56.655Z,0.00
2019-01-15T04:54:56.642Z,0.00
2019-01-15T04:55:56.635Z,0.00
2019-01-15T04:56:56.618Z,0.00
2019-01-15T04:57:56.607Z,0.00
2019-01-15T04:58:56.585Z,0.00
2019-01-15T04:59:56.584Z,0.00
2019-01-15T05:00:56.572Z,0.00
2019-01-15T05:01:56.577Z,0.00
2019-01-15T05:02:56.547Z,0.00
2019-01-15T05:03:56.539Z,0.00
2019-01-15T05:04:56.525Z,0.00
2019-01-15T05:05:56.534Z,0.00
2019-01-15T05:06:56.498Z,0.00
2019-01-15T05:07:56.487Z,0.00
2019-01-15T05:08:56.472Z,0.00
2019-01-15T05:09:56.482Z,0.00
2019-01-15T05:10:56.444Z,0.00
2019-01-15T05:11:56.443Z,0.00
2019-01-15T05:12:56.430Z,0.00
2019-01-15T05:13:56.416Z,0.00
2019-01-15T05:14:56.405Z,0.00
2019-01-15T05:15:56.434Z,0.00
2019-01-15T05:16:56.375Z,0.00
2019-01-15T05:17:56.379Z,0.00
2019-01-15T05:18:56.355Z,0.00
2019-01-15T05:19:56.345Z,0.00
2019-01-15T05:20:57.013Z,0.00
2019-01-15T05:21:56.326Z,0.00
2019-01-15T05:22:56.316Z,0.00
2019-01-15T05:23:56.300Z,0.00
2019-01-15T05:24:56.286Z,0.00
2019-01-15T05:25:56.282Z,0.00
2019-01-15T05:26:56.265Z,0.00
2019-01-15T05:27:56.254Z,0.00
2019-01-15T05:28:56.241Z,0.00
2019-01-15T05:29:56.245Z,0.00
2019-01-15T05:30:56.220Z,0.00
2019-01-15T05:31:56.209Z,0.00
2019-01-15T05:32:56.197Z,0.00
2019-01-15T05:33:56.182Z,0.00
2019-01-15T05:34:56.168Z,0.00
2019-01-15T05:35:56.173Z,0.00
2019-01-15T05:36:56.147Z,0.00
2019-01-15T05:37:56.140Z,0.00
2019-01-15T05:38:56.121Z,0.00
2019-01-15T05:39:56.111Z,0.00
2019-01-15T05:40:56.095Z,0.00
2019-01-15T05:41:56.088Z,0.00
2019-01-15T05:42:56.070Z,0.00
2019-01-15T05:43:56.062Z,0.00
2019-01-15T05:44:56.050Z,0.00
2019-01-15T05:45:56.046Z,0.00
2019-01-15T05:46:56.027Z,0.00
2019-01-15T05:47:56.010Z,0.00
2019-01-15T05:48:56.045Z,0.00
2019-01-15T05:49:55.999Z,0.00
2019-01-15T05:50:55.974Z,0.00
2019-01-15T05:51:55.970Z,0.00
2019-01-15T05:52:55.957Z,0.00
2019-01-15T05:53:55.940Z,0.00
2019-01-15T05:54:55.929Z,0.00
2019-01-15T05:55:55.949Z,0.00
2019-01-15T05:56:55.905Z,0.00
2019-01-15T05:57:55.899Z,0.00
2019-01-15T05:58:55.884Z,0.00
2019-01-15T05:59:55.870Z,0.00
2019-01-15T06:00:55.859Z,0.00
2019-01-15T06:01:55.847Z,0.00
2019-01-15T06:02:55.836Z,0.00
2019-01-15T06:03:55.823Z,0.00
2019-01-15T06:04:55.809Z,0.00
2019-01-15T06:05:55.798Z,0.00
2019-01-15T06:06:55.780Z,0.00
2019-01-15T06:07:55.774Z,0.00
2019-01-15T06:08:55.762Z,0.00
2019-01-15T06:09:55.753Z,0.00
2019-01-15T06:10:55.737Z,0.00
2019-01-15T06:11:55.727Z,0.00
2019-01-15T06:12:55.716Z,0.00
2019-01-15T06:13:55.703Z,0.00
2019-01-15T06:14:55.688Z,0.00
2019-01-15T06:15:55.687Z,0.00
2019-01-15T06:16:55.669Z,0.00
2019-01-15T06:17:55.653Z,0.00
2019-01-15T06:18:55.642Z,0.00
2019-01-15T06:19:55.630Z,0.00
2019-01-15T06:20:55.622Z,0.00
2019-01-15T06:21:57.156Z,0.00
2019-01-15T06:22:55.593Z,0.00
2019-01-15T06:23:55.582Z,0.00
2019-01-15T06:24:55.570Z,0.00
2019-01-15T06:25:55.556Z,0.00
2019-01-15T06:26:55.544Z,0.00
2019-01-15T06:27:55.531Z,0.00
2019-01-15T06:28:55.546Z,0.00
2019-01-15T06:29:55.509Z,0.00
2019-01-15T06:30:55.499Z,0.00
2019-01-15T06:31:56.698Z,0.00
2019-01-15T06:32:55.474Z,0.00
2019-01-15T06:33:55.481Z,0.00
2019-01-15T06:34:55.486Z,0.00
2019-01-15T06:35:55.456Z,0.00
2019-01-15T06:36:55.481Z,0.00
2019-01-15T06:37:55.414Z,0.00
2019-01-15T06:38:55.401Z,0.00
2019-01-15T06:39:55.393Z,0.00
2019-01-15T06:40:55.385Z,0.00
2019-01-15T06:41:55.366Z,0.00
2019-01-15T06:42:55.345Z,0.00
2019-01-15T06:43:55.395Z,0.00
2019-01-15T06:44:55.329Z,0.00
2019-01-15T06:45:55.321Z,0.00
2019-01-15T06:46:55.305Z,0.00
2019-01-15T06:47:55.296Z,0.00
2019-01-15T06:48:55.281Z,0.00
2019-01-15T06:49:55.272Z,0.00
2019-01-15T06:50:55.256Z,0.00
2019-01-15T06:51:55.244Z,0.00
2019-01-15T06:52:55.235Z,0.00
2019-01-15T06:53:55.224Z,0.00
2019-01-15T06:54:55.216Z,0.00
2019-01-15T06:55:55.199Z,0.00
2019-01-15T06:56:55.186Z,0.00
2019-01-15T06:57:55.182Z,0.00
2019-01-15T06:58:55.161Z,0.00
2019-01-15T06:59:55.165Z,0.00
2019-01-15T07:00:55.163Z,5.63
2019-01-15T07:01:55.180Z,5.63
2019-01-15T07:02:55.160Z,5.63
2019-01-15T07:03:55.101Z,5.63
2019-01-15T07:04:55.091Z,5.63
2019-01-15T07:05:55.085Z,5.63
2019-01-15T07:06:55.066Z,5.63
2019-01-15T07:07:55.056Z,5.63
2019-01-15T07:08:55.042Z,5.63
2019-01-15T07:09:55.032Z,5.63
2019-01-15T07:10:55.021Z,5.63
2019-01-15T07:11:55.007Z,11.25
2019-01-15T07:12:54.997Z,11.25
2019-01-15T07:13:57.158Z,11.25
2019-01-15T07:14:54.972Z,11.25
2019-01-15T07:15:54.964Z,11.25
2019-01-15T07:16:54.950Z,11.25
2019-01-15T07:17:54.937Z,11.25
2019-01-15T07:18:54.923Z,11.25
2019-01-15T07:19:54.915Z,16.88
2019-01-15T07:20:54.897Z,16.88
2019-01-15T07:21:54.891Z,16.88
2019-01-15T07:22:54.878Z,16.88
2019-01-15T07:23:54.866Z,16.88
2019-01-15T07:24:54.856Z,16.88
2019-01-15T07:25:54.838Z,22.50
2019-01-15T07:26:54.830Z,22.50
2019-01-15T07:27:54.818Z,22.50
2019-01-15T07:28:54.806Z,22.50
2019-01-15T07:29:54.796Z,22.50
2019-01-15T07:30:54.792Z,22.50
2019-01-15T07:31:54.770Z,28.13
2019-01-15T07:32:55.453Z,28.13
2019-01-15T07:33:54.749Z,33.75
2019-01-15T07:34:54.736Z,33.75
2019-01-15T07:35:54.721Z,39.38
2019-01-15T07:36:54.711Z,39.38
2019-01-15T07:37:54.703Z,45.00
2019-01-15T07:38:54.689Z,45.00
2019-01-15T07:39:54.669Z,45.00
2019-01-15T07:40:54.666Z,50.63
2019-01-15T07:41:54.652Z,56.25
2019-01-15T07:42:54.643Z,56.25
2019-01-15T07:43:54.629Z,61.88
2019-01-15T07:44:54.620Z,61.88
2019-01-15T07:45:54.607Z,67.50
2019-01-15T07:46:56.225Z,67.50
2019-01-15T07:47:54.580Z,67.50
2019-01-15T07:48:54.574Z,73.13
2019-01-15T07:49:54.561Z,78.75
2019-01-15T07:50:54.546Z,84.38
2019-01-15T07:51:54.554Z,90.00
2019-01-15T07:52:54.570Z,95.63
2019-01-15T07:53:56.857Z,95.63
2019-01-15T07:54:54.497Z,101.25
2019-01-15T07:55:54.490Z,101.25
2019-01-15T07:56:54.480Z,106.88
2019-01-15T07:57:54.455Z,106.88
2019-01-15T07:58:54.451Z,112.50
2019-01-15T07:59:54.445Z,112.50
2019-01-15T08:00:54.449Z,112.50
2019-01-15T08:01:54.416Z,118.13
2019-01-15T08:02:54.401Z,118.13
2019-01-15T08:03:54.393Z,123.75
2019-01-15T08:04:54.380Z,123.75
2019-01-15T08:05:54.373Z,129.38
2019-01-15T08:06:54.356Z,135.00
2019-01-15T08:07:54.346Z,135.00
2019-01-15T08:08:54.331Z,135.00
2019-01-15T08:09:54.324Z,135.00
2019-01-15T08:10:57.166Z,135.00
2019-01-15T08:11:54.302Z,135.00
2019-01-15T08:12:54.292Z,135.00
2019-01-15T08:13:54.279Z,140.63
2019-01-15T08:14:54.266Z,140.63
2019-01-15T08:15:54.260Z,146.25
2019-01-15T08:16:54.245Z,146.25
2019-01-15T08:17:54.234Z,146.25
2019-01-15T08:18:54.225Z,146.25
2019-01-15T08:19:54.211Z,146.25
2019-01-15T08:20:54.193Z,151.88
2019-01-15T08:21:54.976Z,157.50
2019-01-15T08:22:54.176Z,163.13
2019-01-15T08:23:54.165Z,163.13
2019-01-15T08:24:54.155Z,168.75
2019-01-15T08:25:54.143Z,168.75
2019-01-15T08:26:54.132Z,174.38
2019-01-15T08:27:54.123Z,185.63
2019-01-15T08:28:54.112Z,185.63
2019-01-15T08:29:54.102Z,191.25
2019-01-15T08:30:54.089Z,196.88
2019-01-15T08:31:54.083Z,196.88
2019-01-15T08:32:54.065Z,196.88
2019-01-15T08:33:54.054Z,202.50
2019-01-15T08:34:54.045Z,208.13
2019-01-15T08:35:54.035Z,213.75
2019-01-15T08:36:54.023Z,213.75
2019-01-15T08:37:54.011Z,219.38
2019-01-15T08:38:54.000Z,225.00
2019-01-15T08:39:53.990Z,225.00
2019-01-15T08:40:53.978Z,230.63
2019-01-15T08:41:53.982Z,230.63
2019-01-15T08:42:53.953Z,236.25
2019-01-15T08:43:55.903Z,236.25
2019-01-15T08:44:53.939Z,241.88
2019-01-15T08:45:55.378Z,241.88
2019-01-15T08:46:53.912Z,247.50
2019-01-15T08:47:53.907Z,253.13
2019-01-15T08:48:53.897Z,253.13
2019-01-15T08:49:53.878Z,264.38
2019-01-15T08:50:54.018Z,270.00
2019-01-15T08:51:53.875Z,281.25
2019-01-15T08:52:53.906Z,298.13
2019-01-15T08:53:53.847Z,315.00
2019-01-15T08:54:53.830Z,326.25
2019-01-15T08:55:53.847Z,337.50
2019-01-15T08:56:53.812Z,343.13
2019-01-15T08:57:53.802Z,348.75
2019-01-15T08:58:53.790Z,348.75
2019-01-15T08:59:53.781Z,354.38
2019-01-15T09:00:53.773Z,360.00
2019-01-15T09:01:53.752Z,360.00
2019-01-15T09:02:53.752Z,365.63
2019-01-15T09:03:53.739Z,371.25
2019-01-15T09:04:53.731Z,371.25
2019-01-15T09:05:53.717Z,376.88
2019-01-15T09:06:53.710Z,376.88
2019-01-15T09:07:53.708Z,382.50
2019-01-15T09:08:53.689Z,393.75
2019-01-15T09:09:53.704Z,399.38
2019-01-15T09:10:53.673Z,405.00
2019-01-15T09:11:53.664Z,405.00
2019-01-15T09:12:53.653Z,405.00
2019-01-15T09:13:53.644Z,405.00
2019-01-15T09:14:53.640Z,410.63
2019-01-15T09:15:53.627Z,416.25
2019-01-15T09:16:53.616Z,410.63
2019-01-15T09:17:53.612Z,410.63
2019-01-15T09:18:53.602Z,410.63
2019-01-15T09:19:53.587Z,427.50
2019-01-15T09:20:53.581Z,450.00
2019-01-15T09:21:53.571Z,444.38
2019-01-15T09:22:53.562Z,438.75
2019-01-15T09:23:53.554Z,444.38
2019-01-15T09:24:53.547Z,466.88
2019-01-15T09:25:53.538Z,495.00
2019-01-15T09:26:53.527Z,500.63
2019-01-15T09:27:53.518Z,489.38
2019-01-15T09:28:53.509Z,489.38
2019-01-15T09:29:53.543Z,500.63
2019-01-15T09:30:53.499Z,500.63
2019-01-15T09:31:53.484Z,500.63
2019-01-15T09:32:53.529Z,506.25
2019-01-15T09:33:53.476Z,517.50
2019-01-15T09:34:53.459Z,523.13
2019-01-15T09:35:53.465Z,523.13
2019-01-15T09:36:53.446Z,511.88
2019-01-15T09:37:53.434Z,511.88
2019-01-15T09:38:53.427Z,506.25
2019-01-15T09:39:53.416Z,506.25
2019-01-15T09:40:53.412Z,511.88
2019-01-15T09:41:53.403Z,523.13
2019-01-15T09:42:53.391Z,534.38
2019-01-15T09:43:53.376Z,540.00
2019-01-15T09:44:53.379Z,545.63
2019-01-15T09:45:53.377Z,562.50
2019-01-15T09:46:53.362Z,556.88
2019-01-15T09:47:53.353Z,568.13
2019-01-15T09:48:53.345Z,579.38
2019-01-15T09:49:53.338Z,590.63
2019-01-15T09:50:53.328Z,601.88
2019-01-15T09:51:53.318Z,607.50
2019-01-15T09:52:53.315Z,607.50
2019-01-15T09:53:53.307Z,596.25
2019-01-15T09:54:53.305Z,590.63
2019-01-15T09:55:53.286Z,590.63
2019-01-15T09:56:53.301Z,601.88
2019-01-15T09:57:53.280Z,618.75
2019-01-15T09:58:53.270Z,630.00
2019-01-15T09:59:53.255Z,641.25
2019-01-15T10:00:53.262Z,646.88
2019-01-15T10:01:53.251Z,630.00
2019-01-15T10:02:53.241Z,635.63
2019-01-15T10:03:53.229Z,624.38
2019-01-15T10:04:53.232Z,618.75
2019-01-15T10:05:53.223Z,630.00
2019-01-15T10:06:53.225Z,646.88
2019-01-15T10:07:53.200Z,646.88
2019-01-15T10:08:53.201Z,641.25
2019-01-15T10:09:53.191Z,646.88
2019-01-15T10:10:53.187Z,658.13
2019-01-15T10:11:53.252Z,663.75
2019-01-15T10:12:53.174Z,686.25
2019-01-15T10:13:53.159Z,691.88
2019-01-15T10:14:53.160Z,697.50
2019-01-15T10:15:53.154Z,697.50
2019-01-15T10:16:53.151Z,703.13
2019-01-15T10:17:53.141Z,691.88
2019-01-15T10:18:53.123Z,680.63
2019-01-15T10:19:53.133Z,680.63
2019-01-15T10:20:53.122Z,675.00
2019-01-15T10:21:53.110Z,669.38
2019-01-15T10:22:53.110Z,669.38
2019-01-15T10:23:53.145Z,663.75
2019-01-15T10:24:53.098Z,675.00
2019-01-15T10:25:53.085Z,669.38
2019-01-15T10:26:53.082Z,663.75
2019-01-15T10:27:53.076Z,658.13
2019-01-15T10:28:53.070Z,646.88
2019-01-15T10:29:59.159Z,663.75
2019-01-15T10:30:53.062Z,675.00
2019-01-15T10:31:53.052Z,669.38
2019-01-15T10:32:53.043Z,669.38
2019-01-15T10:33:53.050Z,680.63
2019-01-15T10:34:53.032Z,680.63
2019-01-15T10:35:53.026Z,686.25
2019-01-15T10:36:53.016Z,686.25
2019-01-15T10:37:53.014Z,691.88
2019-01-15T10:38:53.004Z,697.50
2019-01-15T10:39:52.997Z,686.25
2019-01-15T10:40:53.007Z,680.63
2019-01-15T10:41:52.987Z,686.25
2019-01-15T10:42:52.981Z,697.50
2019-01-15T10:43:52.980Z,714.38
2019-01-15T10:44:52.967Z,725.63
2019-01-15T10:45:52.962Z,725.63
2019-01-15T10:46:52.958Z,725.63
2019-01-15T10:47:52.960Z,725.63
2019-01-15T10:48:52.947Z,720.00
2019-01-15T10:49:52.936Z,725.63
2019-01-15T10:50:52.930Z,731.25
2019-01-15T10:51:52.925Z,725.63
2019-01-15T10:52:52.915Z,731.25
2019-01-15T10:53:52.916Z,748.13
2019-01-15T10:54:52.905Z,776.25
2019-01-15T10:55:52.897Z,781.88
2019-01-15T10:56:52.898Z,770.63
2019-01-15T10:57:52.892Z,753.75
2019-01-15T10:58:52.891Z,759.38
2019-01-15T10:59:52.872Z,770.63
2019-01-15T11:00:52.872Z,793.13
2019-01-15T11:01:52.863Z,810.00
2019-01-15T11:02:52.858Z,815.63
2019-01-15T11:03:52.853Z,821.25
2019-01-15T11:04:52.850Z,804.38
2019-01-15T11:05:52.840Z,776.25
2019-01-15T11:06:52.840Z,759.38
2019-01-15T11:07:52.829Z,765.00
2019-01-15T11:08:52.821Z,787.50
2019-01-15T11:09:52.820Z,804.38
2019-01-15T11:10:52.821Z,821.25
2019-01-15T11:11:52.812Z,821.25
2019-01-15T11:12:52.804Z,821.25
2019-01-15T11:13:52.851Z,826.88
2019-01-15T11:14:56.176Z,832.50
2019-01-15T11:15:52.792Z,832.50
2019-01-15T11:16:52.786Z,821.25
2019-01-15T11:17:52.774Z,810.00
2019-01-15T11:18:52.765Z,793.13
2019-01-15T11:19:52.769Z,793.13
2019-01-15T11:20:52.763Z,798.75
2019-01-15T11:21:52.759Z,798.75
2019-01-15T11:22:52.760Z,781.88
2019-01-15T11:23:52.745Z,787.50
2019-01-15T11:24:52.743Z,798.75
2019-01-15T11:25:52.739Z,815.63
2019-01-15T11:26:52.733Z,810.00
2019-01-15T11:27:52.727Z,798.75
2019-01-15T11:28:52.724Z,804.38
2019-01-15T11:29:52.719Z,781.88
2019-01-15T11:30:52.712Z,770.63
2019-01-15T11:31:52.709Z,753.75
2019-01-15T11:32:52.706Z,720.00
2019-01-15T11:33:52.698Z,669.38
2019-01-15T11:34:52.696Z,641.25
2019-01-15T11:35:52.697Z,635.63
2019-01-15T11:36:52.686Z,635.63
2019-01-15T11:37:52.677Z,630.00
2019-01-15T11:38:52.670Z,607.50
2019-01-15T11:39:52.670Z,618.75
2019-01-15T11:40:52.664Z,630.00
2019-01-15T11:41:52.661Z,613.13
2019-01-15T11:42:52.654Z,579.38
2019-01-15T11:43:52.640Z,551.25
2019-01-15T11:44:52.642Z,523.13
2019-01-15T11:45:52.637Z,495.00
2019-01-15T11:46:52.634Z,489.38
2019-01-15T11:47:52.628Z,483.75
2019-01-15T11:48:52.622Z,596.25
2019-01-15T11:49:52.616Z,562.50
2019-01-15T11:50:52.610Z,528.75
2019-01-15T11:51:52.606Z,511.88
2019-01-15T11:52:52.603Z,500.63
2019-01-15T11:53:52.593Z,489.38
2019-01-15T11:54:52.592Z,483.75
2019-01-15T11:55:52.587Z,489.38
2019-01-15T11:56:52.584Z,489.38
2019-01-15T11:57:52.594Z,483.75
2019-01-15T11:58:52.578Z,466.88
2019-01-15T11:59:52.571Z,483.75
2019-01-15T12:00:52.571Z,489.38
2019-01-15T12:01:52.565Z,461.25
2019-01-15T12:02:52.565Z,466.88
2019-01-15T12:03:52.562Z,483.75
2019-01-15T12:04:54.187Z,461.25
2019-01-15T12:05:54.306Z,405.00
2019-01-15T12:06:52.549Z,455.63
2019-01-15T12:07:52.545Z,540.00
2019-01-15T12:08:52.541Z,506.25
2019-01-15T12:09:52.539Z,669.38
2019-01-15T12:10:52.535Z,742.50
2019-01-15T12:11:52.531Z,810.00
2019-01-15T12:12:52.533Z,759.38
2019-01-15T12:13:52.529Z,585.00
2019-01-15T12:14:52.521Z,568.13
2019-01-15T12:15:52.517Z,596.25
2019-01-15T12:16:52.514Z,697.50
2019-01-15T12:17:52.516Z,708.75
2019-01-15T12:18:52.510Z,534.38
2019-01-15T12:19:52.505Z,376.88
2019-01-15T12:20:52.502Z,365.63
2019-01-15T12:21:52.498Z,421.88
2019-01-15T12:22:52.493Z,506.25
2019-01-15T12:23:52.491Z,506.25
2019-01-15T12:24:52.488Z,438.75
2019-01-15T12:25:52.489Z,675.00
2019-01-15T12:26:52.482Z,686.25
2019-01-15T12:27:52.475Z,776.25
2019-01-15T12:28:52.473Z,579.38
2019-01-15T12:29:52.470Z,545.63
2019-01-15T12:30:52.467Z,624.38
2019-01-15T12:31:52.459Z,618.75
2019-01-15T12:32:52.455Z,495.00
2019-01-15T12:33:52.454Z,450.00
2019-01-15T12:34:52.449Z,421.88
2019-01-15T12:35:52.443Z,433.13
2019-01-15T12:36:52.438Z,433.13
2019-01-15T12:37:52.436Z,433.13
2019-01-15T12:38:52.431Z,461.25
2019-01-15T12:39:52.427Z,478.13
2019-01-15T12:40:52.422Z,495.00
2019-01-15T12:41:52.419Z,466.88
2019-01-15T12:42:52.417Z,472.50
2019-01-15T12:43:52.407Z,472.50
2019-01-15T12:44:52.404Z,472.50
2019-01-15T12:45:52.399Z,472.50
2019-01-15T12:46:52.393Z,478.13
2019-01-15T12:47:52.385Z,506.25
2019-01-15T12:48:52.382Z,478.13
2019-01-15T12:49:52.376Z,472.50
2019-01-15T12:50:52.369Z,562.50
2019-01-15T12:51:52.370Z,573.75
2019-01-15T12:52:52.357Z,562.50
2019-01-15T12:53:52.352Z,624.38
2019-01-15T12:54:52.347Z,528.75
2019-01-15T12:55:55.012Z,478.13